Portada
METAR-TAF:

METAR-TAF

Aeroports :

Àqaba, Jordània

latitud: 29-38N, longitud: 035-01E, altitud: 53 m

Observació

L'informe es va fer fa 35 minuts, a les 03:00 UTC
Vent 14 kt del Nord-Oest
Temperatura 24°C
Humitat 61%
Pressió 1013 hPa
Visibilitat 10 km o més
sense núvols per sota de 1500 mi sense presència de cumulonimbus.

METAR: OJAQ 250300Z 32014KT CAVOK 24/16 Q1013 NOSIG

Hora: 06:35 (03:35 UTC)

Pronòstic

L'informe es va fer fa 4 hores i 45 minuts, a les 22:50 UTC
Pronòstic vàlid del 25 a les 00 UTC al 26 a les 06 UTC
Vent 12 kt del Nord
Visibilitat 10 km o més
sense núvols per sota de 1500 mi sense presència de cumulonimbus.
Probabilitat 30%
l' 25 a les 12 UTC al 25 a les 16 UTC
Vent 16 kt del Nord
Visibilitat: 5000 m
calitja

TAF: OJAQ 242250Z 2500/2606 36012KT CAVOK PROB30 2512/2516 01016KT 5000 HZ

Observacions i pronòstics meteorològics de més de 4000 aeroports (METAR i TAF).

Les estacions disponibles són els punts grocs i vermells al mapa.

Posi el ratolí al punt desitjat per veure el nom de l'estació.

Feu clic per veure les observacions i els pronòstics meteorològics.

Per canviar el mapa: feu clic els botons verds amb una creu de color negre per apropar; al botó verd amb un guió per allunyar la imatge; o en les fletxes verdes per a mapes adjacents.


METAR-TAF: